Portada
METAR-TAF:

METAR-TAF

Aeroports :

Saint-Étienne, França

latitud: 45-32N, longitud: 004-18E, altitud: 404 m

Observació

L'informe es va fer fa 43 minuts, a les 17:00 UTC
Vent 5 kt del Nord-Est
Temperatura 29°C
Humitat 45%
Pressió 1018 hPa
Visibilitat 10 km o més
sense núvols per sota de 1500 mi sense presència de cumulonimbus.

METAR: LFMH 241700Z AUTO 04005KT CAVOK 29/16 Q1018 NOSIG

Hora: 19:43 (17:43 UTC)

Pronòstic

L'informe es va fer fa 3 hores i 43 minuts, a les 14:00 UTC
Pronòstic vàlid del 24 a les 15 UTC al 25 a les 15 UTC
Vent 3 kt amb direcció variable
Visibilitat 10 km o més
sense núvols per sota de 1500 mi sense presència de cumulonimbus.
Temporalment
l' 25 a les 03 UTC al 25 a les 07 UTC
Vent 8 kt del Sud/Sud-Est
Evolucionant progressivament
l' 25 a les 12 UTC al 25 a les 15 UTC
Vent 5 kt del Est

TAF: LFMH 241400Z 2415/2515 VRB03KT CAVOK TEMPO 2503/2507 15008KT BECMG 2512/2515 10005KT

Observacions i pronòstics meteorològics de més de 4000 aeroports (METAR i TAF).

Les estacions disponibles són els punts grocs i vermells al mapa.

Posi el ratolí al punt desitjat per veure el nom de l'estació.

Feu clic per veure les observacions i els pronòstics meteorològics.

Per canviar el mapa: feu clic els botons verds amb una creu de color negre per apropar; al botó verd amb un guió per allunyar la imatge; o en les fletxes verdes per a mapes adjacents.


METAR-TAF: